MST,Max TemperatureF,Mean TemperatureF,Min TemperatureF,Max Dew PointF,MeanDew PointF,Min DewpointF,Max Humidity, Mean Humidity, Min Humidity, Max Sea Level PressureIn, Mean Sea Level PressureIn, Min Sea Level PressureIn, Max VisibilityMiles, Mean VisibilityMiles, Min VisibilityMiles, Max Wind SpeedMPH, Mean Wind SpeedMPH, Max Gust SpeedMPH,PrecipitationIn, CloudCover, Events, WindDirDegrees
2013-11-1,80,62,44,23,18,16,33,22,10,30.14,30.05,29.98,10,10,10,13,6,20,0.00,0,,159
2013-11-2,86,67,47,50,20,9,34,20,5,30.08,29.93,29.81,10,10,9,25,9,32,0.05,2,Rain,146
2013-11-3,81,69,57,54,47,38,80,53,25,29.87,29.78,29.70,10,10,8,17,7,20,0.07,2,Rain,168
2013-11-4,80,66,52,50,43,40,66,46,25,29.80,29.73,29.65,10,10,10,21,9,30,0.00,2,,183
2013-11-5,71,62,53,45,42,37,71,51,31,30.08,29.95,29.80,10,10,10,14,5,18,0.00,2,,299
2013-11-6,77,61,45,40,25,11,71,40,8,30.21,30.15,30.09,10,10,10,13,5,14,0.00,0,,64
2013-11-7,82,68,54,27,19,7,22,17,11,30.16,30.07,29.98,10,10,10,30,12,40,0.00,0,,107
2013-11-8,83,68,52,33,30,27,41,28,14,30.05,29.98,29.90,10,10,10,13,6,15,0.00,0,,157
2013-11-9,83,68,52,36,32,30,41,29,17,30.06,30.01,29.96,10,10,10,13,6,14,0.00,0,,142
2013-11-10,87,70,53,36,33,31,47,30,13,30.10,30.01,29.94,10,10,10,14,5,17,0.00,0,,195
2013-11-11,89,71,53,37,33,30,45,29,13,30.05,30.00,29.92,10,10,10,14,6,17,0.00,0,,134
2013-11-12,87,71,54,42,38,30,47,32,17,30.13,30.08,30.01,10,10,10,25,12,32,0.00,0,,123
2013-11-13,80,72,63,41,41,40,43,34,24,30.09,30.01,29.92,10,10,10,33,17,42,0.00,0,,107
2013-11-14,82,68,54,42,39,33,55,38,21,29.98,29.89,29.80,10,10,10,13,6,17,0.00,0,,135
2013-11-15,77,65,53,51,43,33,52,40,27,29.79,29.70,29.59,10,10,10,26,10,35,0.00,1,,202
2013-11-16,77,69,60,51,43,32,65,43,21,29.86,29.74,29.66,10,10,10,21,11,27,0.00,1,,232
2013-11-17,78,66,53,46,43,38,66,45,24,30.01,29.95,29.86,10,10,10,14,5,22,0.00,2,,243
2013-11-18,79,66,53,46,42,39,64,45,26,30.05,29.98,29.91,10,10,10,13,5,16,0.00,0,,158
2013-11-19,79,65,51,41,37,30,59,38,17,30.03,29.89,29.79,10,10,10,14,7,17,0.00,0,,168
2013-11-20,76,64,52,40,35,29,50,36,21,29.87,29.82,29.76,10,10,10,14,6,19,0.00,2,,232
2013-11-21,74,63,51,54,41,34,78,53,28,29.90,29.85,29.79,10,10,10,16,6,22,0.02,5,,187
2013-11-22,64,56,48,55,49,45,93,83,72,30.00,29.91,29.75,10,8,2,18,7,22,0.87,7,Rain,306
2013-11-23,55,51,47,48,45,42,100,83,66,30.09,30.01,29.96,10,7,2,17,7,22,1.21,7,Rain,90
2013-11-24,60,53,46,45,40,38,80,66,51,30.12,30.07,30.02,10,10,10,14,7,19,0.00,3,,64
2013-11-25,60,50,40,41,38,35,86,67,47,30.20,30.15,30.10,10,10,10,10,3,16,0.00,0,,329
2013-11-26,66,55,43,39,30,22,89,57,24,30.24,30.17,30.10,10,10,10,29,15,39,0.00,0,,113
2013-11-27,63,58,52,25,22,20,32,26,20,30.11,30.04,29.96,10,10,10,30,19,40,0.00,0,,114
2013-11-28,73,61,49,38,29,24,54,37,20,30.07,30.01,29.94,10,10,10,22,9,30,0.00,0,,120
2013-11-29,75,61,47,43,38,34,71,47,23,30.16,30.09,30.01,10,10,10,14,6,18,0.00,0,,163
2013-11-30,71,60,48,45,43,41,80,58,35,30.15,30.10,30.02,10,10,10,9,3,18,0.00,0,,178